createdAt,value
2022-09-13T00:01:13.410Z,10.97
2022-09-13T00:03:41.908Z,10.10
2022-09-13T00:06:14.125Z,10.60
2022-09-13T00:08:43.190Z,9.87
2022-09-13T00:11:18.345Z,10.57
2022-09-13T00:13:46.959Z,10.70
2022-09-13T00:16:17.374Z,10.60
2022-09-13T00:18:46.286Z,10.87
2022-09-13T00:21:17.508Z,9.83
2022-09-13T00:23:47.089Z,10.83
2022-09-13T00:26:18.730Z,9.70
2022-09-13T00:28:50.529Z,9.13
2022-09-13T00:31:19.396Z,9.50
2022-09-13T00:33:48.437Z,10.10
2022-09-13T00:36:18.419Z,9.73
2022-09-13T00:38:47.040Z,9.90
2022-09-13T00:41:17.833Z,10.30
2022-09-13T00:43:49.718Z,9.67
2022-09-13T00:46:23.853Z,10.90
2022-09-13T00:48:56.234Z,10.37
2022-09-13T00:51:26.704Z,10.80
2022-09-13T00:53:59.561Z,11.40
2022-09-13T00:56:33.393Z,11.13
2022-09-13T00:59:06.572Z,10.27
2022-09-13T01:01:42.932Z,11.20
2022-09-13T01:04:13.003Z,10.10
2022-09-13T01:06:43.663Z,12.27
2022-09-13T01:09:13.994Z,10.30
2022-09-13T01:11:49.172Z,10.20
2022-09-13T01:14:19.213Z,10.27
2022-09-13T01:16:48.199Z,9.80
2022-09-13T01:19:17.121Z,10.13
2022-09-13T01:22:25.013Z,10.07
2022-09-13T01:25:18.210Z,9.90
2022-09-13T01:28:11.748Z,9.27
2022-09-13T01:30:44.369Z,9.23
2022-09-13T01:33:32.122Z,9.80
2022-09-13T01:36:35.982Z,10.13
2022-09-13T01:39:07.272Z,10.10
2022-09-13T01:42:01.579Z,10.03
2022-09-13T01:44:40.625Z,9.70
2022-09-13T01:47:23.953Z,8.20
2022-09-13T01:50:05.652Z,10.27
2022-09-13T01:52:42.752Z,10.10
2022-09-13T01:55:20.096Z,9.47
2022-09-13T01:57:55.093Z,9.57
2022-09-13T02:00:23.665Z,10.43
2022-09-13T02:02:59.530Z,10.20
2022-09-13T02:05:34.985Z,10.03
2022-09-13T02:08:09.740Z,11.60
2022-09-13T02:10:43.637Z,9.53
2022-09-13T02:13:18.207Z,10.13
2022-09-13T02:15:50.099Z,10.23
2022-09-13T02:18:26.113Z,10.03
2022-09-13T02:20:58.637Z,9.40
2022-09-13T02:23:33.521Z,10.90
2022-09-13T02:26:04.455Z,11.60
2022-09-13T02:28:36.784Z,11.10
2022-09-13T02:31:09.076Z,11.27
2022-09-13T02:33:44.761Z,10.30
2022-09-13T02:36:16.500Z,10.33
2022-09-13T02:38:48.811Z,10.63
2022-09-13T02:41:27.823Z,9.87
2022-09-13T02:44:02.358Z,10.07
2022-09-13T02:46:55.422Z,9.43
2022-09-13T02:49:31.729Z,8.87
2022-09-13T02:52:09.191Z,9.17
2022-09-13T02:54:43.779Z,10.40
2022-09-13T02:57:16.683Z,11.40
2022-09-13T02:59:46.883Z,10.73
2022-09-13T03:02:18.101Z,9.30
2022-09-13T03:04:50.695Z,16.33
2022-09-13T03:07:19.556Z,11.73
2022-09-13T03:09:51.403Z,10.87
2022-09-13T03:12:34.961Z,10.00
2022-09-13T03:15:18.133Z,10.40
2022-09-13T03:17:55.851Z,9.60
2022-09-13T03:20:38.026Z,10.70
2022-09-13T03:23:20.833Z,11.20
2022-09-13T03:26:08.680Z,10.37
2022-09-13T03:28:49.326Z,9.83
2022-09-13T03:31:28.760Z,10.03
2022-09-13T03:34:04.363Z,10.00
2022-09-13T03:36:38.776Z,10.03
2022-09-13T03:39:15.346Z,10.90
2022-09-13T03:41:48.130Z,10.67
2022-09-13T03:44:20.056Z,11.37
2022-09-13T03:46:50.988Z,11.73
2022-09-13T03:49:22.972Z,9.57
2022-09-13T03:51:53.875Z,10.17
2022-09-13T03:54:25.203Z,9.87
2022-09-13T03:57:15.228Z,9.27
2022-09-13T03:59:47.084Z,9.83
2022-09-13T04:02:16.320Z,9.10
2022-09-13T04:04:45.797Z,9.50
2022-09-13T04:07:18.234Z,10.27
2022-09-13T04:09:46.932Z,9.30
2022-09-13T04:12:15.493Z,10.53
2022-09-13T04:14:44.313Z,8.57
2022-09-13T04:17:13.449Z,11.87
2022-09-13T04:19:42.402Z,10.17
2022-09-13T04:22:10.869Z,11.20
2022-09-13T04:24:40.725Z,10.67
2022-09-13T04:27:09.276Z,9.67
2022-09-13T04:29:37.887Z,10.70
2022-09-13T04:32:06.810Z,11.03
2022-09-13T04:34:35.309Z,12.90
2022-09-13T04:37:03.977Z,10.50
2022-09-13T04:39:32.493Z,11.70
2022-09-13T04:42:02.442Z,12.50
2022-09-13T04:44:31.663Z,10.30
2022-09-13T04:47:00.200Z,13.30
2022-09-13T04:49:28.661Z,16.97
2022-09-13T04:51:57.179Z,10.60
2022-09-13T04:54:25.656Z,9.07
2022-09-13T04:56:54.629Z,8.40
2022-09-13T04:59:24.637Z,8.80
2022-09-13T05:01:53.096Z,12.80
2022-09-13T05:04:21.543Z,15.47
2022-09-13T05:06:49.966Z,10.63
2022-09-13T05:09:18.653Z,10.73
2022-09-13T05:11:47.107Z,9.77
2022-09-13T05:14:15.666Z,17.00
2022-09-13T05:16:45.549Z,13.67
2022-09-13T05:19:14.362Z,13.87
2022-09-13T05:21:42.820Z,13.30
2022-09-13T05:24:11.881Z,13.30
2022-09-13T05:26:40.349Z,11.10
2022-09-13T05:29:09.027Z,10.80
2022-09-13T05:31:39.803Z,15.70
2022-09-13T05:34:11.655Z,12.10
2022-09-13T05:36:40.445Z,10.90
2022-09-13T05:39:29.523Z,9.17
2022-09-13T05:42:01.576Z,8.80
2022-09-13T05:44:30.053Z,8.80
2022-09-13T05:46:58.884Z,9.93
2022-09-13T05:49:28.787Z,9.80
2022-09-13T05:51:57.240Z,9.97
2022-09-13T05:54:25.854Z,8.33
2022-09-13T05:56:57.466Z,9.17
2022-09-13T05:59:25.955Z,8.80
2022-09-13T06:01:54.424Z,7.70
2022-09-13T06:04:23.020Z,8.40
2022-09-13T06:06:52.843Z,6.93
2022-09-13T06:09:21.341Z,8.80
2022-09-13T06:11:49.836Z,8.10
2022-09-13T06:14:18.622Z,6.27
2022-09-13T06:16:47.103Z,7.37
2022-09-13T06:19:15.572Z,6.00
2022-09-13T06:21:44.373Z,6.37
2022-09-13T06:24:14.876Z,6.90
2022-09-13T06:26:43.393Z,9.73
2022-09-13T06:29:13.436Z,14.97
2022-09-13T06:31:44.696Z,10.07
2022-09-13T06:34:15.549Z,8.30
2022-09-13T06:36:44.099Z,11.07
2022-09-13T06:39:14.068Z,8.93
2022-09-13T06:41:42.599Z,7.63
2022-09-13T06:44:11.389Z,8.50
2022-09-13T06:46:39.896Z,7.90
2022-09-13T06:49:09.221Z,9.73
2022-09-13T06:51:38.040Z,7.37
2022-09-13T06:54:06.626Z,8.13
2022-09-13T06:56:38.323Z,7.53
2022-09-13T06:59:08.711Z,8.97
2022-09-13T07:01:38.921Z,10.70
2022-09-13T07:04:09.220Z,6.80
2022-09-13T07:06:40.033Z,7.30
2022-09-13T07:09:11.743Z,8.23
2022-09-13T07:11:42.959Z,7.70
2022-09-13T07:14:15.823Z,6.50
2022-09-13T07:16:46.070Z,7.73
2022-09-13T07:19:16.761Z,10.23
2022-09-13T07:21:45.520Z,8.50
2022-09-13T07:24:14.089Z,8.70
2022-09-13T07:26:44.210Z,7.47
2022-09-13T07:29:14.902Z,8.47
2022-09-13T07:31:45.758Z,10.70
2022-09-13T07:34:16.435Z,8.47
2022-09-13T07:36:46.829Z,8.27
2022-09-13T07:39:20.296Z,7.97
2022-09-13T07:41:53.599Z,8.60
2022-09-13T07:44:22.851Z,7.30
2022-09-13T07:46:51.369Z,8.17
2022-09-13T07:49:21.376Z,7.73
2022-09-13T07:51:51.511Z,8.50
2022-09-13T07:54:20.895Z,8.80
2022-09-13T07:56:51.831Z,9.10
2022-09-13T07:59:20.832Z,9.77
2022-09-13T08:01:50.805Z,8.60
2022-09-13T08:04:21.285Z,8.80
2022-09-13T08:06:49.995Z,7.63
2022-09-13T08:09:19.006Z,8.53
2022-09-13T08:11:49.771Z,8.30
2022-09-13T08:14:21.729Z,7.63
2022-09-13T08:16:50.231Z,7.57
2022-09-13T08:19:20.450Z,7.30
2022-09-13T08:21:49.229Z,7.30
2022-09-13T08:24:19.488Z,6.70
2022-09-13T08:26:48.657Z,7.70
2022-09-13T08:29:18.772Z,7.43
2022-09-13T08:31:47.429Z,6.73
2022-09-13T08:34:18.076Z,7.00
2022-09-13T08:36:46.812Z,7.17
2022-09-13T08:39:15.393Z,7.57
2022-09-13T08:42:25.913Z,7.37
2022-09-13T08:44:57.645Z,7.60
2022-09-13T08:47:36.926Z,6.93
2022-09-13T08:50:15.528Z,6.57
2022-09-13T08:52:55.807Z,6.37
2022-09-13T08:55:35.608Z,5.53
2022-09-13T08:58:30.565Z,7.10
2022-09-13T09:01:08.631Z,6.90
2022-09-13T09:03:44.499Z,6.50
2022-09-13T09:06:16.626Z,6.43
2022-09-13T09:08:49.407Z,7.20
2022-09-13T09:11:30.015Z,6.13
2022-09-13T09:14:07.110Z,6.13
2022-09-13T09:16:41.759Z,5.00
2022-09-13T09:19:19.361Z,6.37
2022-09-13T09:21:50.491Z,6.03
2022-09-13T09:24:22.871Z,5.97
2022-09-13T09:26:51.574Z,6.03
2022-09-13T09:29:25.117Z,5.07
2022-09-13T09:32:11.443Z,6.43
2022-09-13T09:34:51.781Z,5.43
2022-09-13T09:37:24.292Z,5.37
2022-09-13T09:39:54.757Z,5.33
2022-09-13T09:42:26.281Z,5.47
2022-09-13T09:44:57.203Z,6.13
2022-09-13T09:47:30.214Z,6.17
2022-09-13T09:50:13.106Z,5.40
2022-09-13T09:52:50.289Z,5.10
2022-09-13T09:55:26.797Z,5.07
2022-09-13T09:57:57.663Z,4.50
2022-09-13T10:00:28.397Z,4.47
2022-09-13T10:03:01.187Z,3.80
2022-09-13T10:05:30.320Z,4.90
2022-09-13T10:08:02.891Z,4.87
2022-09-13T10:10:42.419Z,4.40
2022-09-13T10:13:17.238Z,4.63
2022-09-13T10:15:55.310Z,4.70
2022-09-13T10:18:43.537Z,4.07
2022-09-13T10:21:25.820Z,4.60
2022-09-13T10:24:14.436Z,3.90
2022-09-13T10:26:42.954Z,4.73
2022-09-13T10:29:17.660Z,4.70
2022-09-13T10:31:49.984Z,4.00
2022-09-13T10:34:23.747Z,4.33
2022-09-13T10:36:58.030Z,3.30
2022-09-13T10:39:28.025Z,5.37
2022-09-13T10:41:58.125Z,4.40
2022-09-13T10:44:34.003Z,4.40
2022-09-13T10:47:05.681Z,4.80
2022-09-13T10:49:40.470Z,3.40
2022-09-13T10:52:34.495Z,3.73
2022-09-13T10:55:32.224Z,3.90
2022-09-13T10:58:27.539Z,4.20
2022-09-13T11:01:40.602Z,4.07
2022-09-13T11:04:38.161Z,3.57
2022-09-13T11:07:29.420Z,4.40
2022-09-13T11:10:03.883Z,3.90
2022-09-13T11:12:42.445Z,3.67
2022-09-13T11:15:24.192Z,4.07
2022-09-13T11:18:34.699Z,4.13
2022-09-13T11:21:15.291Z,3.50
2022-09-13T11:24:01.457Z,4.00
2022-09-13T11:26:39.463Z,4.07
2022-09-13T11:29:20.967Z,3.80
2022-09-13T11:31:59.343Z,3.60
2022-09-13T11:34:39.634Z,3.40
2022-09-13T11:37:26.225Z,4.00
2022-09-13T11:40:09.837Z,3.00
2022-09-13T11:42:49.634Z,2.97
2022-09-13T11:45:25.065Z,3.60
2022-09-13T11:48:23.242Z,2.90
2022-09-13T11:51:01.867Z,3.17
2022-09-13T11:54:06.829Z,3.77
2022-09-13T11:56:40.370Z,3.77
2022-09-13T11:59:19.973Z,2.87
2022-09-13T12:01:55.660Z,3.10
2022-09-13T12:04:33.092Z,3.40
2022-09-13T12:07:05.734Z,3.50
2022-09-13T12:09:38.170Z,3.57
2022-09-13T12:12:11.883Z,3.23
2022-09-13T12:14:47.303Z,3.00
2022-09-13T12:17:26.706Z,2.77
2022-09-13T12:19:59.126Z,3.20
2022-09-13T12:22:31.726Z,3.03
2022-09-13T12:25:05.962Z,3.03
2022-09-13T12:27:40.630Z,2.73
2022-09-13T12:30:16.562Z,2.87
2022-09-13T12:32:47.145Z,3.43
2022-09-13T12:35:25.173Z,3.47
2022-09-13T12:38:13.626Z,3.13
2022-09-13T12:41:16.153Z,2.70
2022-09-13T12:44:10.064Z,3.73
2022-09-13T12:46:56.494Z,3.47
2022-09-13T12:49:41.628Z,2.80
2022-09-13T12:52:33.009Z,2.80
2022-09-13T12:55:46.134Z,2.57
2022-09-13T12:58:43.919Z,2.30
2022-09-13T13:01:18.227Z,2.70
2022-09-13T13:03:53.043Z,3.10
2022-09-13T13:06:33.475Z,2.70
2022-09-13T13:09:05.764Z,2.80
2022-09-13T13:11:45.741Z,2.73
2022-09-13T13:14:44.224Z,2.87
2022-09-13T13:17:40.840Z,2.53
2022-09-13T13:20:40.965Z,2.30
2022-09-13T13:23:23.587Z,3.07
2022-09-13T13:26:01.380Z,3.03
2022-09-13T13:28:53.410Z,3.07
2022-09-13T13:31:39.697Z,3.30
2022-09-13T13:34:32.623Z,4.00
2022-09-13T13:37:04.248Z,2.97
2022-09-13T13:39:38.705Z,2.80
2022-09-13T13:42:23.605Z,3.80
2022-09-13T13:45:07.967Z,2.80
2022-09-13T13:48:21.273Z,2.73
2022-09-13T13:51:17.720Z,3.27
2022-09-13T13:53:49.863Z,4.50
2022-09-13T13:56:29.713Z,3.80
2022-09-13T13:59:07.904Z,2.87
2022-09-13T14:01:40.948Z,3.27
2022-09-13T14:04:42.403Z,3.20
2022-09-13T14:07:29.388Z,2.90
2022-09-13T14:10:04.373Z,3.13
2022-09-13T14:12:44.672Z,3.90
2022-09-13T14:15:28.263Z,2.97
2022-09-13T14:18:36.761Z,3.70
2022-09-13T14:21:18.552Z,2.93
2022-09-13T14:23:48.355Z,3.37
2022-09-13T14:26:17.337Z,2.97
2022-09-13T14:28:45.846Z,3.03
2022-09-13T14:31:20.901Z,2.80
2022-09-13T14:33:49.432Z,2.03
2022-09-13T14:36:21.156Z,2.43
2022-09-13T14:38:55.565Z,3.60
2022-09-13T14:41:32.332Z,2.63
2022-09-13T14:44:23.767Z,3.00
2022-09-13T14:47:02.142Z,2.43
2022-09-13T14:49:36.365Z,2.57
2022-09-13T14:52:08.694Z,2.67
2022-09-13T14:54:41.706Z,2.57
2022-09-13T14:57:24.154Z,3.07
2022-09-13T14:59:55.692Z,2.90
2022-09-13T15:02:26.822Z,2.27
2022-09-13T15:04:57.709Z,2.60
2022-09-13T15:07:32.622Z,2.90
2022-09-13T15:10:11.323Z,2.70
2022-09-13T15:12:50.207Z,2.70
2022-09-13T15:15:35.326Z,2.43
2022-09-13T15:18:07.508Z,2.83
2022-09-13T15:20:52.420Z,2.53
2022-09-13T15:23:24.716Z,2.57
2022-09-13T15:25:56.658Z,2.47
2022-09-13T15:28:30.210Z,2.40
2022-09-13T15:31:01.264Z,4.10
2022-09-13T15:33:32.706Z,5.40
2022-09-13T15:36:30.295Z,6.07
2022-09-13T15:39:02.345Z,2.70
2022-09-13T15:41:34.043Z,3.63
2022-09-13T15:44:04.669Z,3.57
2022-09-13T15:46:33.763Z,3.87
2022-09-13T15:49:05.221Z,4.53
2022-09-13T15:51:39.093Z,8.40
2022-09-13T15:54:12.035Z,7.40
2022-09-13T15:56:45.039Z,8.33
2022-09-13T15:59:15.679Z,7.47
2022-09-13T16:01:45.249Z,15.93
2022-09-13T16:04:14.154Z,11.07
2022-09-13T16:06:43.039Z,4.00
2022-09-13T16:09:19.519Z,3.57
2022-09-13T16:11:50.810Z,3.90
2022-09-13T16:14:20.206Z,2.90
2022-09-13T16:16:49.900Z,4.33
2022-09-13T16:19:21.133Z,4.30
2022-09-13T16:21:50.084Z,2.60
2022-09-13T16:24:18.750Z,3.40
2022-09-13T16:26:48.533Z,3.93
2022-09-13T16:29:17.006Z,2.67
2022-09-13T16:31:45.633Z,2.57
2022-09-13T16:34:14.116Z,2.90
2022-09-13T16:36:42.802Z,2.37
2022-09-13T16:39:11.358Z,2.53
2022-09-13T16:41:41.342Z,2.00
2022-09-13T16:44:11.308Z,2.30
2022-09-13T16:46:40.578Z,2.77
2022-09-13T16:49:09.115Z,2.67
2022-09-13T16:51:37.908Z,2.30
2022-09-13T16:54:06.957Z,2.40
2022-09-13T16:56:35.747Z,2.50
2022-09-13T16:59:04.592Z,2.57
2022-09-13T17:01:34.626Z,2.67
2022-09-13T17:04:03.779Z,3.10
2022-09-13T17:06:32.215Z,2.87
2022-09-13T17:09:02.247Z,4.73
2022-09-13T17:11:33.187Z,3.80
2022-09-13T17:14:03.185Z,5.40
2022-09-13T17:16:37.258Z,6.53
2022-09-13T17:19:09.462Z,6.33
2022-09-13T17:21:38.046Z,5.10
2022-09-13T17:24:11.359Z,5.10
2022-09-13T17:26:42.765Z,3.80
2022-09-13T17:29:12.583Z,3.80
2022-09-13T17:31:43.815Z,3.23
2022-09-13T17:34:12.916Z,3.50
2022-09-13T17:36:42.179Z,4.40
2022-09-13T17:39:11.012Z,4.73
2022-09-13T17:41:39.826Z,5.20
2022-09-13T17:44:08.823Z,4.90
2022-09-13T17:46:37.574Z,6.80
2022-09-13T17:49:07.591Z,6.60
2022-09-13T17:51:36.681Z,7.53
2022-09-13T17:54:07.600Z,7.33
2022-09-13T17:56:37.947Z,7.93
2022-09-13T17:59:10.242Z,18.03
2022-09-13T18:01:41.319Z,28.17
2022-09-13T18:04:11.810Z,24.17
2022-09-13T18:06:42.716Z,32.73
2022-09-13T18:09:12.005Z,45.30
2022-09-13T18:11:41.440Z,27.27
2022-09-13T18:14:13.484Z,25.07
2022-09-13T18:16:42.547Z,4.93
2022-09-13T18:19:13.276Z,4.80
2022-09-13T18:21:42.056Z,26.23
2022-09-13T18:24:10.902Z,33.00
2022-09-13T18:26:39.589Z,31.20
2022-09-13T18:29:11.215Z,15.07
2022-09-13T18:31:41.639Z,8.50
2022-09-13T18:34:14.690Z,11.10
2022-09-13T18:36:43.468Z,5.17
2022-09-13T18:39:17.565Z,4.47
2022-09-13T18:41:48.384Z,4.20
2022-09-13T18:44:18.189Z,4.17
2022-09-13T18:46:47.459Z,3.80
2022-09-13T18:49:18.468Z,3.90
2022-09-13T18:51:48.733Z,4.07
2022-09-13T18:54:18.944Z,4.13
2022-09-13T18:56:51.179Z,5.07
2022-09-13T18:59:19.895Z,4.53
2022-09-13T19:01:48.984Z,5.57
2022-09-13T19:04:21.027Z,4.10
2022-09-13T19:06:51.467Z,3.63
2022-09-13T19:09:22.779Z,4.80
2022-09-13T19:11:54.077Z,6.07
2022-09-13T19:14:25.440Z,4.23
2022-09-13T19:16:56.400Z,4.10
2022-09-13T19:19:26.380Z,3.80
2022-09-13T19:21:55.226Z,4.67
2022-09-13T19:24:23.914Z,4.50
2022-09-13T19:26:53.683Z,4.90
2022-09-13T19:29:23.451Z,4.33
2022-09-13T19:31:53.372Z,4.70
2022-09-13T19:34:23.329Z,4.60
2022-09-13T19:36:58.370Z,4.60
2022-09-13T19:39:37.031Z,4.47
2022-09-13T19:42:05.650Z,4.70
2022-09-13T19:44:34.098Z,5.20
2022-09-13T19:49:52.682Z,5.73
2022-09-13T19:52:22.559Z,4.80
2022-09-13T19:54:51.798Z,4.70
2022-09-13T19:57:20.378Z,4.63
2022-09-13T19:59:48.857Z,4.50
2022-09-13T20:02:17.334Z,7.70
2022-09-13T20:04:48.698Z,5.17
2022-09-13T20:07:17.276Z,7.00
2022-09-13T20:09:47.622Z,6.77
2022-09-13T20:12:16.545Z,5.50
2022-09-13T20:14:45.041Z,6.10
2022-09-13T20:17:13.509Z,5.80
2022-09-13T20:19:46.354Z,5.60
2022-09-13T20:22:17.651Z,6.30
2022-09-13T20:24:47.621Z,5.70
2022-09-13T20:27:16.103Z,5.90
2022-09-13T20:29:44.558Z,6.80
2022-09-13T20:32:13.207Z,5.00
2022-09-13T20:34:41.835Z,4.80
2022-09-13T20:37:10.495Z,4.60
2022-09-13T20:39:39.252Z,4.43
2022-09-13T20:42:09.344Z,4.90
2022-09-13T20:44:40.319Z,6.10
2022-09-13T20:47:08.840Z,5.10
2022-09-13T20:49:37.448Z,4.83
2022-09-13T20:52:06.251Z,5.20
2022-09-13T20:54:34.759Z,4.60
2022-09-13T20:57:03.240Z,4.93
2022-09-13T20:59:33.093Z,5.20
2022-09-13T21:02:02.903Z,4.50
2022-09-13T21:04:32.383Z,4.70
2022-09-13T21:07:18.348Z,5.17
2022-09-13T21:09:46.880Z,4.90
2022-09-13T21:12:15.598Z,5.00
2022-09-13T21:14:46.367Z,4.83
2022-09-13T21:17:14.886Z,5.10
2022-09-13T21:19:43.378Z,6.20
2022-09-13T21:22:11.895Z,5.83
2022-09-13T21:24:40.340Z,6.67
2022-09-13T21:27:08.784Z,6.30
2022-09-13T21:29:37.196Z,6.57
2022-09-13T21:32:07.508Z,7.17
2022-09-13T21:34:35.975Z,6.80
2022-09-13T21:37:04.443Z,5.60
2022-09-13T21:39:32.918Z,6.23
2022-09-13T21:42:01.824Z,6.00
2022-09-13T21:44:30.955Z,6.43
2022-09-13T21:46:59.426Z,5.80
2022-09-13T21:49:29.254Z,6.47
2022-09-13T21:51:57.687Z,6.27
2022-09-13T21:54:26.146Z,7.50
2022-09-13T21:56:55.451Z,7.37
2022-09-13T21:59:24.904Z,7.17
2022-09-13T22:01:54.905Z,7.77
2022-09-13T22:04:25.275Z,7.40
2022-09-13T22:06:55.600Z,7.03
2022-09-13T22:09:26.925Z,7.17
2022-09-13T22:11:56.417Z,7.30
2022-09-13T22:14:24.884Z,6.80
2022-09-13T22:16:53.896Z,7.67
2022-09-13T22:19:24.395Z,7.73
2022-09-13T22:21:58.866Z,8.10
2022-09-13T22:24:29.381Z,7.20
2022-09-13T22:26:59.013Z,7.60
2022-09-13T22:29:27.708Z,7.27
2022-09-13T22:31:56.664Z,7.67
2022-09-13T22:34:30.599Z,7.20
2022-09-13T22:37:00.487Z,6.43
2022-09-13T22:39:28.999Z,7.00
2022-09-13T22:41:57.478Z,7.50
2022-09-13T22:44:25.874Z,7.30
2022-09-13T22:46:54.637Z,7.87
2022-09-13T22:49:23.103Z,7.70
2022-09-13T22:51:51.553Z,9.53
2022-09-13T22:54:21.600Z,8.00
2022-09-13T22:56:50.024Z,7.80
2022-09-13T22:59:20.988Z,8.07
2022-09-13T23:01:49.970Z,8.03
2022-09-13T23:04:18.478Z,8.47
2022-09-13T23:06:47.166Z,8.50
2022-09-13T23:09:18.534Z,8.43
2022-09-13T23:11:48.958Z,9.03
2022-09-13T23:14:19.984Z,7.20
2022-09-13T23:16:51.144Z,9.47
2022-09-13T23:19:21.852Z,8.60
2022-09-13T23:21:50.390Z,8.87
2022-09-13T23:24:19.660Z,7.80
2022-09-13T23:26:50.008Z,9.87
2022-09-13T23:29:20.668Z,8.70
2022-09-13T23:31:49.694Z,9.10
2022-09-13T23:34:18.872Z,9.50
2022-09-13T23:36:48.030Z,9.53
2022-09-13T23:39:18.112Z,8.97
2022-09-13T23:41:48.584Z,9.33
2022-09-13T23:44:17.777Z,9.80
2022-09-13T23:46:46.435Z,10.10
2022-09-13T23:49:15.057Z,8.70
2022-09-13T23:51:43.867Z,9.77
2022-09-13T23:54:13.377Z,8.37
2022-09-13T23:56:41.952Z,9.53
2022-09-13T23:59:13.007Z,10.23
